createdAt,value
2023-04-02T00:01:49.756Z,8.79
2023-04-02T00:07:15.600Z,8.97
2023-04-02T00:12:19.607Z,9.20
2023-04-02T00:17:24.989Z,9.21
2023-04-02T00:22:31.643Z,9.07
2023-04-02T00:27:33.800Z,9.25
2023-04-02T00:32:36.614Z,9.33
2023-04-02T00:37:39.494Z,9.21
2023-04-02T00:42:41.852Z,9.31
2023-04-02T00:47:44.608Z,9.38
2023-04-02T00:52:51.233Z,9.35
2023-04-02T00:57:55.886Z,9.27
2023-04-02T01:03:35.336Z,9.34
2023-04-02T01:09:02.100Z,9.32
2023-04-02T01:14:38.571Z,9.32
2023-04-02T01:19:53.559Z,9.36
2023-04-02T01:24:58.259Z,9.37
2023-04-02T01:30:03.241Z,9.42
2023-04-02T01:35:06.141Z,9.39
2023-04-02T01:40:08.291Z,9.40
2023-04-02T01:45:13.937Z,9.35
2023-04-02T01:50:31.901Z,9.38
2023-04-02T01:55:52.530Z,9.31
2023-04-02T02:01:12.444Z,9.35
2023-04-02T02:06:17.827Z,9.43
2023-04-02T02:11:26.813Z,9.46
2023-04-02T02:16:32.061Z,9.50
2023-04-02T02:21:42.588Z,9.45
2023-04-02T02:26:46.375Z,9.49
2023-04-02T02:31:55.154Z,9.39
2023-04-02T02:37:08.200Z,9.32
2023-04-02T02:42:16.155Z,9.30
2023-04-02T02:47:29.573Z,9.25
2023-04-02T02:52:35.293Z,9.23
2023-04-02T02:57:43.842Z,9.29
2023-04-02T03:02:47.460Z,9.29
2023-04-02T03:07:53.373Z,9.33
2023-04-02T03:13:23.582Z,9.29
2023-04-02T03:18:42.769Z,9.26
2023-04-02T03:23:59.601Z,9.08
2023-04-02T03:29:22.711Z,8.96
2023-04-02T03:34:33.531Z,8.82
2023-04-02T03:39:46.765Z,8.84
2023-04-02T03:45:00.616Z,8.89
2023-04-02T03:50:17.596Z,8.68
2023-04-02T03:55:24.141Z,8.58
2023-04-02T04:00:48.788Z,8.50
2023-04-02T04:05:56.278Z,8.60
2023-04-02T04:11:03.521Z,8.57
2023-04-02T04:16:18.117Z,8.79
2023-04-02T04:21:30.910Z,8.84
2023-04-02T04:26:44.627Z,8.96
2023-04-02T04:31:55.374Z,9.01
2023-04-02T04:37:02.149Z,8.96
2023-04-02T04:42:07.162Z,8.92
2023-04-02T04:47:15.117Z,8.82
2023-04-02T04:52:38.953Z,8.65
2023-04-02T04:57:43.101Z,8.72
2023-04-02T05:02:50.663Z,8.63
2023-04-02T05:08:00.100Z,8.67
2023-04-02T05:13:10.859Z,8.85
2023-04-02T05:18:27.978Z,9.05
2023-04-02T05:23:37.588Z,9.29
2023-04-02T05:29:21.291Z,9.66
2023-04-02T05:34:32.269Z,9.88
2023-04-02T05:39:34.678Z,10.07
2023-04-02T05:44:50.924Z,10.26
2023-04-02T05:50:11.566Z,10.45
2023-04-02T05:55:13.681Z,10.68
2023-04-02T06:00:21.746Z,10.76
2023-04-02T06:05:44.402Z,10.94
2023-04-02T06:11:11.261Z,11.32
2023-04-02T06:16:16.173Z,11.44
2023-04-02T06:21:20.805Z,11.50
2023-04-02T06:26:40.461Z,11.54
2023-04-02T06:31:49.330Z,11.67
2023-04-02T06:36:57.460Z,11.94
2023-04-02T06:42:12.403Z,12.10
2023-04-02T06:47:38.664Z,12.20
2023-04-02T06:52:48.958Z,12.42
2023-04-02T06:57:51.144Z,12.93
2023-04-02T07:02:56.631Z,12.98
2023-04-02T07:07:59.006Z,13.02
2023-04-02T07:13:02.542Z,13.13
2023-04-02T07:18:05.392Z,13.36
2023-04-02T07:23:08.326Z,13.43
2023-04-02T07:28:10.570Z,14.09
2023-04-02T07:33:17.677Z,14.69
2023-04-02T07:38:20.512Z,14.66
2023-04-02T07:43:23.318Z,14.66
2023-04-02T07:48:28.097Z,14.12
2023-04-02T07:53:41.948Z,14.04
2023-04-02T07:58:44.348Z,14.34
2023-04-02T08:03:47.303Z,15.85
2023-04-02T08:08:50.521Z,16.22
2023-04-02T08:13:52.928Z,18.14
2023-04-02T08:18:55.557Z,19.60
2023-04-02T08:23:57.739Z,18.19
2023-04-02T08:29:00.007Z,17.26
2023-04-02T08:34:02.524Z,17.20
2023-04-02T08:39:06.532Z,15.73
2023-04-02T08:44:30.303Z,16.31
2023-04-02T08:49:38.072Z,16.83
2023-04-02T08:54:43.684Z,19.58
2023-04-02T08:59:47.193Z,23.12
2023-04-02T09:04:50.089Z,23.38
2023-04-02T09:09:52.628Z,20.83
2023-04-02T09:15:06.794Z,20.53
2023-04-02T09:20:19.127Z,18.49
2023-04-02T09:25:33.360Z,17.01
2023-04-02T09:30:51.489Z,16.91
2023-04-02T09:35:57.905Z,15.90
2023-04-02T09:41:18.664Z,15.97
2023-04-02T09:46:25.972Z,16.48
2023-04-02T09:51:34.378Z,16.93
2023-04-02T09:56:38.440Z,16.92
2023-04-02T10:02:01.943Z,17.76
2023-04-02T10:07:06.899Z,18.11
2023-04-02T10:12:14.390Z,16.88
2023-04-02T10:17:21.160Z,17.39
2023-04-02T10:22:23.520Z,16.69
2023-04-02T10:27:42.380Z,16.51
2023-04-02T10:33:00.413Z,16.31
2023-04-02T10:38:30.088Z,17.48
2023-04-02T10:43:41.592Z,17.86
2023-04-02T10:48:55.829Z,20.09
2023-04-02T10:54:14.055Z,18.67
2023-04-02T10:59:34.281Z,19.57
2023-04-02T11:04:45.072Z,23.69
2023-04-02T11:09:52.289Z,28.76
2023-04-02T11:14:56.296Z,30.43
2023-04-02T11:20:37.037Z,23.44
2023-04-02T11:25:41.456Z,24.06
2023-04-02T11:30:46.628Z,23.83
2023-04-02T11:35:48.910Z,22.97
2023-04-02T11:40:54.804Z,22.60
2023-04-02T11:45:59.498Z,25.53
2023-04-02T11:51:32.103Z,28.45
2023-04-02T11:56:49.079Z,29.99
2023-04-02T12:02:04.302Z,31.20
2023-04-02T12:07:21.721Z,31.34
2023-04-02T12:12:23.797Z,30.99
2023-04-02T12:17:38.082Z,29.53
2023-04-02T12:22:49.014Z,30.59
2023-04-02T12:28:09.504Z,30.17
2023-04-02T12:33:21.038Z,28.55
2023-04-02T12:38:24.455Z,24.86
2023-04-02T12:43:28.871Z,21.93
2023-04-02T12:48:32.416Z,28.62
2023-04-02T12:53:42.412Z,27.21
2023-04-02T12:58:53.836Z,27.89
2023-04-02T13:04:14.971Z,28.60
2023-04-02T13:09:33.983Z,29.67
2023-04-02T13:14:38.031Z,28.93
2023-04-02T13:19:40.234Z,29.21
2023-04-02T13:24:43.686Z,28.69
2023-04-02T13:29:46.500Z,32.60
2023-04-02T13:34:48.721Z,28.87
2023-04-02T13:39:50.885Z,27.90
2023-04-02T13:44:53.162Z,28.39
2023-04-02T13:49:55.275Z,26.34
2023-04-02T13:55:01.402Z,28.51
2023-04-02T14:00:05.013Z,28.67
2023-04-02T14:05:31.927Z,30.29
2023-04-02T14:10:37.095Z,28.23
2023-04-02T14:16:05.945Z,27.71
2023-04-02T14:21:31.352Z,26.23
2023-04-02T14:26:55.647Z,25.22
2023-04-02T14:32:03.038Z,24.87
2023-04-02T14:37:49.796Z,21.27
2023-04-02T14:43:10.568Z,23.01
2023-04-02T14:48:57.279Z,23.36
2023-04-02T14:54:13.361Z,18.58
2023-04-02T14:59:28.600Z,17.55
2023-04-02T15:04:41.557Z,15.91
2023-04-02T15:09:50.578Z,14.39
2023-04-02T15:15:02.422Z,13.58
2023-04-02T15:20:18.758Z,13.60
2023-04-02T15:25:40.216Z,12.80
2023-04-02T15:30:44.429Z,11.19
2023-04-02T15:36:05.981Z,10.73
2023-04-02T15:41:25.365Z,10.72
2023-04-02T15:46:46.295Z,10.71
2023-04-02T15:52:01.840Z,10.81
2023-04-02T15:57:39.546Z,11.07
2023-04-02T16:02:51.055Z,11.62
2023-04-02T16:08:12.171Z,11.79
2023-04-02T16:13:17.305Z,12.26
2023-04-02T16:18:51.965Z,13.13
2023-04-02T16:23:54.308Z,13.84
2023-04-02T16:29:12.628Z,14.14
2023-04-02T16:34:25.495Z,13.85
2023-04-02T16:39:50.724Z,13.84
2023-04-02T16:44:58.736Z,13.87
2023-04-02T16:50:12.949Z,13.83
2023-04-02T16:55:58.360Z,13.33
2023-04-02T17:01:21.812Z,12.87
2023-04-02T17:06:26.634Z,12.37
2023-04-02T17:12:01.131Z,11.79
2023-04-02T17:17:04.665Z,11.42
2023-04-02T17:22:07.748Z,11.55
2023-04-02T17:27:33.778Z,11.36
2023-04-02T17:32:37.055Z,11.19
2023-04-02T17:37:51.902Z,10.95
2023-04-02T17:43:12.285Z,10.81
2023-04-02T17:48:28.241Z,10.61
2023-04-02T17:53:42.296Z,10.38
2023-04-02T17:59:06.109Z,10.10
2023-04-02T18:04:18.114Z,9.88
2023-04-02T18:09:29.150Z,9.64
2023-04-02T18:14:55.864Z,9.43
2023-04-02T18:20:27.574Z,9.22
2023-04-02T18:25:45.964Z,9.17
2023-04-02T18:31:24.364Z,9.27
2023-04-02T18:36:38.060Z,9.22
2023-04-02T18:42:13.942Z,9.17
2023-04-02T18:47:40.936Z,9.19
2023-04-02T18:52:46.418Z,9.16
2023-04-02T18:58:04.039Z,9.15
2023-04-02T19:03:31.237Z,9.12
2023-04-02T19:08:40.366Z,9.00
2023-04-02T19:13:44.555Z,8.83
2023-04-02T19:19:19.716Z,8.68
2023-04-02T19:24:41.387Z,8.46
2023-04-02T19:30:12.949Z,8.57
2023-04-02T19:35:18.172Z,8.77
2023-04-02T19:40:33.573Z,8.51
2023-04-02T19:45:57.366Z,8.85
2023-04-02T19:50:59.881Z,8.72
2023-04-02T19:56:02.466Z,8.46
2023-04-02T20:01:05.024Z,8.48
2023-04-02T20:06:13.923Z,8.62
2023-04-02T20:11:16.473Z,8.68
2023-04-02T20:16:18.714Z,8.65
2023-04-02T20:21:23.171Z,8.88
2023-04-02T20:26:27.596Z,8.90
2023-04-02T20:31:30.377Z,8.79
2023-04-02T20:36:32.834Z,8.51
2023-04-02T20:41:35.009Z,8.43
2023-04-02T20:46:37.266Z,8.51
2023-04-02T20:51:39.528Z,8.45
2023-04-02T20:56:43.198Z,8.53
2023-04-02T21:01:46.018Z,8.29
2023-04-02T21:06:48.784Z,8.40
2023-04-02T21:11:51.037Z,8.41
2023-04-02T21:17:18.552Z,8.20
2023-04-02T21:22:26.388Z,7.99
2023-04-02T21:27:29.005Z,7.81
2023-04-02T21:32:33.851Z,8.03
2023-04-02T21:37:36.600Z,8.12
2023-04-02T21:42:38.697Z,8.33
2023-04-02T21:47:47.087Z,8.28
2023-04-02T21:52:49.312Z,8.10
2023-04-02T21:57:51.523Z,8.17
2023-04-02T22:02:53.917Z,8.09
2023-04-02T22:07:56.139Z,8.18
2023-04-02T22:12:58.274Z,8.18
2023-04-02T22:18:00.625Z,7.79
2023-04-02T22:23:02.824Z,7.72
2023-04-02T22:28:05.302Z,7.63
2023-04-02T22:33:07.620Z,7.57
2023-04-02T22:38:10.575Z,7.62
2023-04-02T22:43:12.759Z,7.44
2023-04-02T22:48:14.949Z,7.48
2023-04-02T22:53:17.295Z,7.45
2023-04-02T22:58:20.855Z,7.39
2023-04-02T23:08:44.372Z,7.26
2023-04-02T23:13:49.014Z,7.22
2023-04-02T23:18:54.612Z,7.06
2023-04-02T23:23:59.275Z,7.16
2023-04-02T23:29:05.895Z,7.03
2023-04-02T23:34:11.702Z,7.06
2023-04-02T23:39:20.537Z,7.10
2023-04-02T23:44:26.959Z,7.03
2023-04-02T23:49:29.525Z,6.96
2023-04-02T23:54:34.591Z,6.88
2023-04-02T23:59:37.289Z,6.84
